createdAt,value
2023-02-14T00:01:27.970Z,69.62
2023-02-14T00:04:00.786Z,69.96
2023-02-14T00:06:32.041Z,70.24
2023-02-14T00:08:59.960Z,70.35
2023-02-14T00:11:28.646Z,70.41
2023-02-14T00:14:14.958Z,70.51
2023-02-14T00:16:42.976Z,70.74
2023-02-14T00:19:12.622Z,70.80
2023-02-14T00:21:40.598Z,70.76
2023-02-14T00:24:12.963Z,70.32
2023-02-14T00:26:41.250Z,70.31
2023-02-14T00:29:13.837Z,70.49
2023-02-14T00:31:42.215Z,70.73
2023-02-14T00:34:10.687Z,70.63
2023-02-14T00:36:39.319Z,70.87
2023-02-14T00:39:08.569Z,70.74
2023-02-14T00:41:39.102Z,70.38
2023-02-14T00:44:07.472Z,70.00
2023-02-14T00:46:36.777Z,70.17
2023-02-14T00:49:04.948Z,70.05
2023-02-14T00:51:33.022Z,69.73
2023-02-14T00:54:03.466Z,66.99
2023-02-14T00:56:32.459Z,68.55
2023-02-14T00:59:00.415Z,70.24
2023-02-14T01:01:28.394Z,70.41
2023-02-14T01:03:56.767Z,70.47
2023-02-14T01:06:25.069Z,70.44
2023-02-14T01:08:53.001Z,70.65
2023-02-14T01:11:21.895Z,70.64
2023-02-14T01:13:50.596Z,70.33
2023-02-14T01:16:20.234Z,70.53
2023-02-14T01:18:49.175Z,70.37
2023-02-14T01:21:19.300Z,70.43
2023-02-14T01:23:48.599Z,70.09
2023-02-14T01:26:17.187Z,70.26
2023-02-14T01:28:45.361Z,70.35
2023-02-14T01:31:16.072Z,70.28
2023-02-14T01:33:45.188Z,70.31
2023-02-14T01:36:19.306Z,70.32
2023-02-14T01:38:47.475Z,70.47
2023-02-14T01:41:15.459Z,70.59
2023-02-14T01:44:01.643Z,70.61
2023-02-14T01:46:32.085Z,70.68
2023-02-14T01:49:02.804Z,70.73
2023-02-14T01:51:32.114Z,70.71
2023-02-14T01:54:00.740Z,70.69
2023-02-14T01:56:32.956Z,70.38
2023-02-14T01:59:02.983Z,70.12
2023-02-14T02:01:31.550Z,70.19
2023-02-14T02:04:07.210Z,70.38
2023-02-14T02:06:41.431Z,70.14
2023-02-14T02:09:17.590Z,70.11
2023-02-14T02:11:45.665Z,70.30
2023-02-14T02:14:19.465Z,70.48
2023-02-14T02:16:53.319Z,70.56
2023-02-14T02:19:33.633Z,70.92
2023-02-14T02:22:20.323Z,70.94
2023-02-14T02:24:51.381Z,71.05
2023-02-14T02:27:25.963Z,70.85
2023-02-14T02:30:14.530Z,70.86
2023-02-14T02:32:54.470Z,71.05
2023-02-14T02:35:41.727Z,71.12
2023-02-14T02:38:28.033Z,71.00
2023-02-14T02:40:56.208Z,70.99
2023-02-14T02:43:39.397Z,71.12
2023-02-14T02:46:44.594Z,71.05
2023-02-14T02:49:38.759Z,71.17
2023-02-14T02:52:29.142Z,71.34
2023-02-14T02:55:07.160Z,71.09
2023-02-14T02:57:39.323Z,71.27
2023-02-14T03:00:08.527Z,71.36
2023-02-14T03:02:59.023Z,71.62
2023-02-14T03:05:29.146Z,71.72
2023-02-14T03:07:57.111Z,71.78
2023-02-14T03:10:26.924Z,71.96
2023-02-14T03:13:13.956Z,72.07
2023-02-14T03:15:53.124Z,72.26
2023-02-14T03:18:39.585Z,72.23
2023-02-14T03:21:40.004Z,72.30
2023-02-14T03:24:14.217Z,72.41
2023-02-14T03:26:48.848Z,72.52
2023-02-14T03:29:16.960Z,72.38
2023-02-14T03:31:52.693Z,72.11
2023-02-14T03:34:35.898Z,72.04
2023-02-14T03:37:03.860Z,72.08
2023-02-14T03:39:44.015Z,72.22
2023-02-14T03:42:27.243Z,72.21
2023-02-14T03:44:56.789Z,72.17
2023-02-14T03:47:28.915Z,72.12
2023-02-14T03:50:00.298Z,72.19
2023-02-14T03:52:29.760Z,72.05
2023-02-14T03:55:00.120Z,72.10
2023-02-14T03:57:43.217Z,72.32
2023-02-14T04:00:11.701Z,72.29
2023-02-14T04:02:56.475Z,72.22
2023-02-14T04:05:26.176Z,72.22
2023-02-14T04:07:55.698Z,72.31
2023-02-14T04:10:24.567Z,72.41
2023-02-14T04:12:53.160Z,72.32
2023-02-14T04:15:21.185Z,72.50
2023-02-14T04:18:07.831Z,72.54
2023-02-14T04:20:37.313Z,72.58
2023-02-14T04:23:05.517Z,72.46
2023-02-14T04:25:33.588Z,72.61
2023-02-14T04:28:01.662Z,72.49
2023-02-14T04:30:29.599Z,72.49
2023-02-14T04:32:57.699Z,72.46
2023-02-14T04:35:25.661Z,72.28
2023-02-14T04:37:53.674Z,72.31
2023-02-14T04:40:21.704Z,71.88
2023-02-14T04:42:49.676Z,71.92
2023-02-14T04:45:17.644Z,72.09
2023-02-14T04:47:45.718Z,72.13
2023-02-14T04:50:13.674Z,71.99
2023-02-14T04:52:42.075Z,71.82
2023-02-14T04:55:10.647Z,71.79
2023-02-14T04:57:38.619Z,71.54
2023-02-14T05:00:07.200Z,71.58
2023-02-14T05:02:35.496Z,71.45
2023-02-14T05:05:03.648Z,71.44
2023-02-14T05:07:31.919Z,71.36
2023-02-14T05:10:00.098Z,71.31
2023-02-14T05:12:28.166Z,71.32
2023-02-14T05:14:57.783Z,71.21
2023-02-14T05:17:25.742Z,71.20
2023-02-14T05:19:53.712Z,71.09
2023-02-14T05:22:21.679Z,71.07
2023-02-14T05:24:49.552Z,70.96
2023-02-14T05:27:17.514Z,70.93
2023-02-14T05:29:45.384Z,70.87
2023-02-14T05:32:13.604Z,71.09
2023-02-14T05:34:41.630Z,71.30
2023-02-14T05:37:09.494Z,71.27
2023-02-14T05:39:37.465Z,72.09
2023-02-14T05:42:05.326Z,72.59
2023-02-14T05:44:33.310Z,71.61
2023-02-14T05:47:01.488Z,71.21
2023-02-14T05:49:29.447Z,71.38
2023-02-14T05:51:57.282Z,71.44
2023-02-14T05:54:25.491Z,71.19
2023-02-14T05:56:53.468Z,71.13
2023-02-14T05:59:21.534Z,71.38
2023-02-14T06:01:49.403Z,71.55
2023-02-14T06:04:17.297Z,71.67
2023-02-14T06:06:45.546Z,71.96
2023-02-14T06:09:13.717Z,72.04
2023-02-14T06:11:41.696Z,72.07
2023-02-14T06:14:09.664Z,72.16
2023-02-14T06:16:37.535Z,72.32
2023-02-14T06:19:05.695Z,72.24
2023-02-14T06:21:33.775Z,72.28
2023-02-14T06:24:02.282Z,72.10
2023-02-14T06:26:30.428Z,72.09
2023-02-14T06:28:59.114Z,72.37
2023-02-14T06:31:27.082Z,72.30
2023-02-14T06:33:55.461Z,72.47
2023-02-14T06:36:23.943Z,72.84
2023-02-14T06:38:51.909Z,73.49
2023-02-14T06:41:19.988Z,75.41
2023-02-14T06:43:50.918Z,75.49
2023-02-14T06:46:19.047Z,73.60
2023-02-14T06:48:47.573Z,72.94
2023-02-14T06:51:15.465Z,72.77
2023-02-14T06:53:43.410Z,72.52
2023-02-14T06:56:11.277Z,72.54
2023-02-14T06:58:39.149Z,72.65
2023-02-14T07:01:07.354Z,72.79
2023-02-14T07:03:35.322Z,72.83
2023-02-14T07:06:03.264Z,72.85
2023-02-14T07:08:31.128Z,73.84
2023-02-14T07:10:59.452Z,76.27
2023-02-14T07:13:27.885Z,76.68
2023-02-14T07:15:55.926Z,74.79
2023-02-14T07:18:24.031Z,74.33
2023-02-14T07:20:52.632Z,75.07
2023-02-14T07:23:20.888Z,74.01
2023-02-14T07:25:48.738Z,73.42
2023-02-14T07:28:16.720Z,72.72
2023-02-14T07:30:44.631Z,72.69
2023-02-14T07:33:12.764Z,72.73
2023-02-14T07:35:40.733Z,72.98
2023-02-14T07:38:08.909Z,72.96
2023-02-14T07:40:36.976Z,73.02
2023-02-14T07:43:04.967Z,73.02
2023-02-14T07:45:32.915Z,72.94
2023-02-14T07:48:02.625Z,72.94
2023-02-14T07:50:30.691Z,72.76
2023-02-14T07:52:58.566Z,72.65
2023-02-14T07:55:26.529Z,72.54
2023-02-14T07:57:54.441Z,72.34
2023-02-14T08:00:22.670Z,72.30
2023-02-14T08:02:50.653Z,72.41
2023-02-14T08:05:18.862Z,71.79
2023-02-14T08:07:46.994Z,72.12
2023-02-14T08:10:15.372Z,72.41
2023-02-14T08:13:01.679Z,72.35
2023-02-14T08:15:50.466Z,72.27
2023-02-14T08:18:19.264Z,72.22
2023-02-14T08:20:49.990Z,72.18
2023-02-14T08:23:19.158Z,72.21
2023-02-14T08:25:48.548Z,72.05
2023-02-14T08:28:17.172Z,72.06
2023-02-14T08:30:45.914Z,72.28
2023-02-14T08:33:13.886Z,72.17
2023-02-14T08:35:41.903Z,71.90
2023-02-14T08:38:09.913Z,71.58
2023-02-14T08:40:37.855Z,71.69
2023-02-14T08:43:06.886Z,71.63
2023-02-14T08:45:35.124Z,71.56
2023-02-14T08:48:04.440Z,71.29
2023-02-14T08:50:32.475Z,71.27
2023-02-14T08:53:00.766Z,70.97
2023-02-14T08:55:28.909Z,70.82
2023-02-14T08:57:58.175Z,70.31
2023-02-14T09:00:26.340Z,70.19
2023-02-14T09:02:54.530Z,70.01
2023-02-14T09:05:23.657Z,69.98
2023-02-14T09:07:52.579Z,69.84
2023-02-14T09:10:20.801Z,69.78
2023-02-14T09:12:48.774Z,69.73
2023-02-14T09:15:16.762Z,69.75
2023-02-14T09:17:44.725Z,69.68
2023-02-14T09:20:13.836Z,69.52
2023-02-14T09:22:42.004Z,69.32
2023-02-14T09:25:10.156Z,69.38
2023-02-14T09:27:38.628Z,69.40
2023-02-14T09:30:07.557Z,68.89
2023-02-14T09:32:35.599Z,69.11
2023-02-14T09:35:22.161Z,69.14
2023-02-14T09:38:08.591Z,68.92
2023-02-14T09:40:36.443Z,68.76
2023-02-14T09:43:10.292Z,68.61
2023-02-14T09:45:38.870Z,68.73
2023-02-14T09:48:06.928Z,68.42
2023-02-14T09:50:54.211Z,68.36
2023-02-14T09:53:25.197Z,68.00
2023-02-14T09:56:02.799Z,67.70
2023-02-14T09:58:39.557Z,67.60
2023-02-14T10:01:13.715Z,67.23
2023-02-14T10:04:01.872Z,67.27
2023-02-14T10:06:48.006Z,66.61
2023-02-14T10:09:21.810Z,66.38
2023-02-14T10:11:50.407Z,65.99
2023-02-14T10:14:20.720Z,65.73
2023-02-14T10:16:48.629Z,65.62
2023-02-14T10:19:16.881Z,64.91
2023-02-14T10:21:48.047Z,64.15
2023-02-14T10:24:24.994Z,63.56
2023-02-14T10:26:57.921Z,63.19
2023-02-14T10:29:26.659Z,62.86
2023-02-14T10:31:57.639Z,62.28
2023-02-14T10:34:34.998Z,61.60
2023-02-14T10:37:08.882Z,61.57
2023-02-14T10:39:39.842Z,61.07
2023-02-14T10:42:10.987Z,60.59
2023-02-14T10:44:54.624Z,60.22
2023-02-14T10:47:37.128Z,60.02
2023-02-14T10:50:23.319Z,59.95
2023-02-14T10:52:51.276Z,60.15
2023-02-14T10:55:36.979Z,60.25
2023-02-14T10:58:06.398Z,60.38
2023-02-14T11:00:44.075Z,60.43
2023-02-14T11:03:13.201Z,60.48
2023-02-14T11:05:48.468Z,60.61
2023-02-14T11:08:27.237Z,60.48
2023-02-14T11:11:13.803Z,60.22
2023-02-14T11:13:42.426Z,60.11
2023-02-14T11:16:12.359Z,60.07
2023-02-14T11:18:41.148Z,59.99
2023-02-14T11:21:13.439Z,59.90
2023-02-14T11:23:45.364Z,59.66
2023-02-14T11:26:24.015Z,58.79
2023-02-14T11:28:52.360Z,58.16
2023-02-14T11:31:34.230Z,57.22
2023-02-14T11:34:05.133Z,57.22
2023-02-14T11:36:40.434Z,57.32
2023-02-14T11:39:27.348Z,57.20
2023-02-14T11:41:56.552Z,56.90
2023-02-14T11:44:27.048Z,56.66
2023-02-14T11:46:56.174Z,56.49
2023-02-14T11:49:24.254Z,56.61
2023-02-14T11:51:52.414Z,56.85
2023-02-14T11:54:40.248Z,56.03
2023-02-14T11:57:21.788Z,55.29
2023-02-14T11:59:52.979Z,54.36
2023-02-14T12:02:24.586Z,53.79
2023-02-14T12:04:54.863Z,52.73
2023-02-14T12:07:33.809Z,51.88
2023-02-14T12:10:17.033Z,51.55
2023-02-14T12:12:56.258Z,51.21
2023-02-14T12:15:24.581Z,52.92
2023-02-14T12:18:10.922Z,52.86
2023-02-14T12:20:38.893Z,51.78
2023-02-14T12:23:10.240Z,51.36
2023-02-14T12:25:43.125Z,51.63
2023-02-14T12:28:15.498Z,51.72
2023-02-14T12:30:43.679Z,51.78
2023-02-14T12:33:17.839Z,52.03
2023-02-14T12:36:09.206Z,52.87
2023-02-14T12:38:40.658Z,54.14
2023-02-14T12:41:14.520Z,53.63
2023-02-14T12:43:43.343Z,53.80
2023-02-14T12:46:29.969Z,54.01
2023-02-14T12:49:16.870Z,54.11
2023-02-14T12:52:00.195Z,54.34
2023-02-14T12:54:28.476Z,54.41
2023-02-14T12:56:59.206Z,54.66
2023-02-14T12:59:59.537Z,55.13
2023-02-14T13:02:46.367Z,55.45
2023-02-14T13:05:25.072Z,55.84
2023-02-14T13:08:03.998Z,56.26
2023-02-14T13:10:51.313Z,56.63
2023-02-14T13:13:28.514Z,56.92
2023-02-14T13:15:56.636Z,57.04
2023-02-14T13:18:46.355Z,57.25
2023-02-14T13:21:16.482Z,57.43
2023-02-14T13:23:47.112Z,57.87
2023-02-14T13:26:19.485Z,58.07
2023-02-14T13:28:52.813Z,58.41
2023-02-14T13:31:21.083Z,58.56
2023-02-14T13:33:55.053Z,58.95
2023-02-14T13:36:23.235Z,59.12
2023-02-14T13:41:26.645Z,59.44
2023-02-14T13:44:00.240Z,59.58
2023-02-14T13:46:28.321Z,59.70
2023-02-14T13:49:19.091Z,60.03
2023-02-14T13:51:48.750Z,60.43
2023-02-14T13:54:21.003Z,60.71
2023-02-14T13:56:48.965Z,60.92
2023-02-14T13:59:28.158Z,61.17
2023-02-14T14:01:56.574Z,61.49
2023-02-14T14:04:33.351Z,61.69
2023-02-14T14:07:01.534Z,62.05
2023-02-14T14:09:41.803Z,62.10
2023-02-14T14:12:22.125Z,62.34
2023-02-14T14:15:10.574Z,62.49
2023-02-14T14:17:43.072Z,62.83
2023-02-14T14:20:16.779Z,63.05
2023-02-14T14:22:52.998Z,63.16
2023-02-14T14:25:34.780Z,63.21
2023-02-14T14:28:04.340Z,63.37
2023-02-14T14:30:35.791Z,63.59
2023-02-14T14:33:14.438Z,63.81
2023-02-14T14:35:52.308Z,63.88
2023-02-14T14:38:20.586Z,64.15
2023-02-14T14:40:49.165Z,64.14
2023-02-14T14:43:26.181Z,64.05
2023-02-14T14:45:56.264Z,64.20
2023-02-14T14:48:30.371Z,64.28
2023-02-14T14:50:59.408Z,64.60
2023-02-14T14:53:31.543Z,64.55
2023-02-14T14:55:59.905Z,64.30
2023-02-14T14:58:39.154Z,64.51
2023-02-14T15:01:08.726Z,64.57
2023-02-14T15:03:36.935Z,64.57
2023-02-14T15:06:05.020Z,64.68
2023-02-14T15:08:36.477Z,64.62
2023-02-14T15:11:10.067Z,64.79
2023-02-14T15:13:53.655Z,64.95
2023-02-14T15:16:29.292Z,65.08
2023-02-14T15:19:00.200Z,65.12
2023-02-14T15:21:28.495Z,65.74
2023-02-14T15:23:56.444Z,66.68
2023-02-14T15:26:28.349Z,65.78
2023-02-14T15:29:01.134Z,65.75
2023-02-14T15:31:34.914Z,65.64
2023-02-14T15:34:05.013Z,65.67
2023-02-14T15:36:34.205Z,65.71
2023-02-14T15:39:04.538Z,65.61
2023-02-14T15:41:32.701Z,65.58
2023-02-14T15:44:00.792Z,65.66
2023-02-14T15:46:37.133Z,65.65
2023-02-14T15:49:08.182Z,65.69
2023-02-14T15:51:36.945Z,65.79
2023-02-14T15:54:28.077Z,65.86
2023-02-14T15:56:56.876Z,66.02
2023-02-14T15:59:27.083Z,66.19
2023-02-14T16:01:59.866Z,66.37
2023-02-14T16:04:29.168Z,66.25
2023-02-14T16:07:04.933Z,66.37
2023-02-14T16:09:36.055Z,66.63
2023-02-14T16:12:16.207Z,67.00
2023-02-14T16:14:46.218Z,67.12
2023-02-14T16:17:14.613Z,67.18
2023-02-14T16:19:44.888Z,67.23
2023-02-14T16:22:24.575Z,67.33
2023-02-14T16:24:52.550Z,67.38
2023-02-14T16:27:20.502Z,67.27
2023-02-14T16:29:48.460Z,67.43
2023-02-14T16:32:23.613Z,67.60
2023-02-14T16:34:51.607Z,67.70
2023-02-14T16:37:23.674Z,67.87
2023-02-14T16:39:53.163Z,67.99
2023-02-14T16:42:21.431Z,68.41
2023-02-14T16:44:50.442Z,68.10
2023-02-14T16:47:19.627Z,68.22
2023-02-14T16:49:47.808Z,68.46
2023-02-14T16:52:26.228Z,68.63
2023-02-14T16:54:54.152Z,68.52
2023-02-14T16:57:29.829Z,68.43
2023-02-14T16:59:58.002Z,68.44
2023-02-14T17:02:28.942Z,68.29
2023-02-14T17:04:57.329Z,68.32
2023-02-14T17:07:26.772Z,68.20
2023-02-14T17:09:58.791Z,67.99
2023-02-14T17:12:29.760Z,68.02
2023-02-14T17:15:01.079Z,68.08
2023-02-14T17:17:30.375Z,67.99
2023-02-14T17:19:58.345Z,68.00
2023-02-14T17:22:26.317Z,68.00
2023-02-14T17:24:56.692Z,68.20
2023-02-14T17:27:25.029Z,68.23
2023-02-14T17:29:53.135Z,68.25
2023-02-14T17:32:21.237Z,68.26
2023-02-14T17:34:49.597Z,68.25
2023-02-14T17:37:19.102Z,68.01
2023-02-14T17:39:47.120Z,67.70
2023-02-14T17:42:15.085Z,67.83
2023-02-14T17:44:43.069Z,68.05
2023-02-14T17:47:11.034Z,68.24
2023-02-14T17:49:39.178Z,68.24
2023-02-14T17:52:07.373Z,68.42
2023-02-14T17:54:38.527Z,68.44
2023-02-14T17:57:06.486Z,68.62
2023-02-14T17:59:35.085Z,68.82
2023-02-14T18:02:03.391Z,68.92
2023-02-14T18:04:35.002Z,69.27
2023-02-14T18:07:03.590Z,69.40
2023-02-14T18:09:32.474Z,69.47
2023-02-14T18:12:00.452Z,69.65
2023-02-14T18:14:28.522Z,69.81
2023-02-14T18:16:56.500Z,69.93
2023-02-14T18:19:24.522Z,69.96
2023-02-14T18:21:54.581Z,70.13
2023-02-14T18:24:22.558Z,70.12
2023-02-14T18:26:50.924Z,70.32
2023-02-14T18:29:19.157Z,70.46
2023-02-14T18:31:47.633Z,70.40
2023-02-14T18:34:15.963Z,70.57
2023-02-14T18:36:43.927Z,70.74
2023-02-14T18:39:11.937Z,70.83
2023-02-14T18:41:40.170Z,70.97
2023-02-14T18:44:08.194Z,71.01
2023-02-14T18:46:36.832Z,71.10
2023-02-14T18:49:07.178Z,71.17
2023-02-14T18:51:37.407Z,71.18
2023-02-14T18:54:05.634Z,71.13
2023-02-14T18:56:36.086Z,71.05
2023-02-14T18:59:05.467Z,71.21
2023-02-14T19:01:36.881Z,71.23
2023-02-14T19:04:06.939Z,71.26
2023-02-14T19:06:36.345Z,71.29
2023-02-14T19:09:07.902Z,71.15
2023-02-14T19:11:35.979Z,71.30
2023-02-14T19:14:09.475Z,71.40
2023-02-14T19:16:42.105Z,71.53
2023-02-14T19:19:11.288Z,71.43
2023-02-14T19:21:43.928Z,71.69
2023-02-14T19:24:12.084Z,71.76
2023-02-14T19:26:41.201Z,72.05
2023-02-14T19:29:10.924Z,72.07
2023-02-14T19:31:43.195Z,72.16
2023-02-14T19:34:19.350Z,72.03
2023-02-14T19:36:48.221Z,72.18
2023-02-14T19:39:17.462Z,72.45
2023-02-14T19:41:47.553Z,72.44
2023-02-14T19:44:17.248Z,72.38
2023-02-14T19:46:46.449Z,72.53
2023-02-14T19:49:15.955Z,72.54
2023-02-14T19:51:45.370Z,72.12
2023-02-14T19:54:13.845Z,72.07
2023-02-14T19:56:43.149Z,72.31
2023-02-14T19:59:11.634Z,72.27
2023-02-14T20:01:43.132Z,72.13
2023-02-14T20:04:32.558Z,72.14
2023-02-14T20:07:00.626Z,72.28
2023-02-14T20:09:29.284Z,72.19
2023-02-14T20:11:58.198Z,72.35
2023-02-14T20:14:27.406Z,72.42
2023-02-14T20:16:56.143Z,72.54
2023-02-14T20:19:27.221Z,72.67
2023-02-14T20:21:55.704Z,72.55
2023-02-14T20:24:25.108Z,72.36
2023-02-14T20:26:53.791Z,72.36
2023-02-14T20:29:23.297Z,72.48
2023-02-14T20:31:52.618Z,72.51
2023-02-14T20:34:21.176Z,72.60
2023-02-14T20:36:53.146Z,72.54
2023-02-14T20:39:22.998Z,72.55
2023-02-14T20:41:50.930Z,72.53
2023-02-14T20:44:22.393Z,72.37
2023-02-14T20:46:51.990Z,72.50
2023-02-14T20:49:21.602Z,72.62
2023-02-14T20:51:49.967Z,72.71
2023-02-14T20:54:18.772Z,73.10
2023-02-14T20:56:47.347Z,73.28
2023-02-14T20:59:15.174Z,73.20
2023-02-14T21:01:43.309Z,73.43
2023-02-14T21:04:11.654Z,73.50
2023-02-14T21:06:40.151Z,73.73
2023-02-14T21:09:08.834Z,73.83
2023-02-14T21:11:36.705Z,73.91
2023-02-14T21:14:04.657Z,74.05
2023-02-14T21:16:32.939Z,74.09
2023-02-14T21:19:00.909Z,74.22
2023-02-14T21:21:34.885Z,74.21
2023-02-14T21:24:12.923Z,74.57
2023-02-14T21:26:41.441Z,74.79
2023-02-14T21:29:09.840Z,74.77
2023-02-14T21:31:38.075Z,74.90
2023-02-14T21:34:06.136Z,75.06
2023-02-14T21:36:36.079Z,75.24
2023-02-14T21:39:05.247Z,75.12
2023-02-14T21:41:34.442Z,75.23
2023-02-14T21:44:03.223Z,75.21
2023-02-14T21:46:32.816Z,75.14
2023-02-14T21:49:19.970Z,75.14
2023-02-14T21:51:47.983Z,75.33
2023-02-14T21:54:16.163Z,75.32
2023-02-14T21:56:44.385Z,75.29
2023-02-14T21:59:12.460Z,75.47
2023-02-14T22:01:41.623Z,75.89
2023-02-14T22:04:11.370Z,75.74
2023-02-14T22:06:40.255Z,75.62
2023-02-14T22:09:08.522Z,75.66
2023-02-14T22:11:36.401Z,75.91
2023-02-14T22:14:04.770Z,75.74
2023-02-14T22:16:32.983Z,75.73
2023-02-14T22:19:00.917Z,75.84
2023-02-14T22:21:31.243Z,75.84
2023-02-14T22:24:00.139Z,75.98
2023-02-14T22:26:41.269Z,75.80
2023-02-14T22:29:10.620Z,75.77
2023-02-14T22:31:40.683Z,75.80
2023-02-14T22:34:09.945Z,75.81
2023-02-14T22:36:38.210Z,75.77
2023-02-14T22:39:06.380Z,75.76
2023-02-14T22:41:37.949Z,76.04
2023-02-14T22:44:06.608Z,76.25
2023-02-14T22:46:36.906Z,76.30
2023-02-14T22:49:05.948Z,76.10
2023-02-14T22:51:37.919Z,76.04
2023-02-14T22:54:07.862Z,75.99
2023-02-14T22:56:38.922Z,76.00
2023-02-14T22:59:17.788Z,75.59
2023-02-14T23:01:46.261Z,75.92
2023-02-14T23:04:16.088Z,75.90
2023-02-14T23:06:44.776Z,76.24
2023-02-14T23:09:13.241Z,76.45
2023-02-14T23:11:42.133Z,76.53
2023-02-14T23:14:30.377Z,76.69
2023-02-14T23:17:17.392Z,76.89
2023-02-14T23:20:04.622Z,76.74
2023-02-14T23:22:36.861Z,76.75
2023-02-14T23:25:07.157Z,76.62
2023-02-14T23:27:40.496Z,76.67
2023-02-14T23:30:10.345Z,76.80
2023-02-14T23:32:38.378Z,76.69
2023-02-14T23:35:06.641Z,76.83
2023-02-14T23:37:34.730Z,76.73
2023-02-14T23:40:02.710Z,76.91
2023-02-14T23:42:30.668Z,77.04
2023-02-14T23:45:21.540Z,76.95
2023-02-14T23:47:50.164Z,76.91
2023-02-14T23:50:18.448Z,76.95
2023-02-14T23:52:46.612Z,76.94
2023-02-14T23:55:14.583Z,76.58
2023-02-14T23:57:42.555Z,76.51
